Latest Weather Observations for Esperance

IDW60801

Issued at 4:05 pm WST Friday 25 July 2014 (issued every 30 minutes, with the page automatically refreshed every 10 minutes)

About weather observations | Map of weather stations | Latest weather observations for WA | Other Formats
Station Details ID: 009789 Name: ESPERANCE Lat: -33.83 Lon: 121.89 Height: 25.0 m
Data from the previous 72 hours. | See also: Recent months at Esperance
Date/Time
WST
Temp
°C
App
Temp
°C
Dew
Point
Rel
Hum
%
Delta-T
°C
Wind Press
QNH
hPa
Press
MSL
hPa
Rain
since 9 am
mm
Dir
 
Spd
km/h
Gust
km/h
Spd
kts
Gust
kts
25/04:00pm 19.0 15.7 8.1 49 5.6 NNW 15 19 8 10 1017.9 1017.9 0.0
25/03:30pm 19.0 15.7 8.1 49 5.6 NW 15 20 8 11 1018.0 - 0.0
25/03:00pm 19.8 15.6 8.2 47 6.0 NW 20 28 11 15 1018.0 1018.0 0.0
25/02:30pm 19.0 14.7 7.9 48 5.7 NW 20 26 11 14 1018.0 - 0.0
25/02:00pm 19.1 14.8 8.0 48 5.7 NW 20 30 11 16 1018.1 1018.1 0.0
25/01:30pm 18.9 13.9 8.2 50 5.5 NNW 24 32 13 17 1018.4 - 0.0
25/01:00pm 18.3 12.8 7.4 49 5.5 NNW 26 37 14 20 1018.6 1018.6 0.0
25/12:30pm 18.8 13.7 7.8 48 5.6 NNW 24 35 13 19 1019.3 - 0.0
25/12:00pm 17.6 12.2 6.4 47 5.5 NNW 24 32 13 17 1019.9 1019.9 0.0
25/11:30am 16.5 11.1 6.2 50 5.0 NNW 24 35 13 19 1020.3 - 0.0
25/11:00am 16.4 11.1 6.9 53 4.7 NNW 24 33 13 18 1020.8 1020.8 0.0
25/10:30am 15.4 10.4 6.5 55 4.3 NNW 22 30 12 16 1021.3 - 0.0
25/10:00am 14.5 9.4 6.1 57 4.0 NNW 22 32 12 17 1021.5 1021.5 0.0
25/09:30am 13.8 9.7 6.2 60 3.6 NNW 17 24 9 13 1021.7 - 0.0
25/09:00am 12.3 8.1 5.9 65 3.0 N 17 24 9 13 1021.9 1021.9 0.4
25/08:30am 11.2 8.7 6.5 73 2.2 N 9 11 5 6 1021.9 - 0.4
25/08:00am 9.8 6.8 6.1 78 1.7 N 11 13 6 7 1021.9 1021.9 0.4
25/07:30am 8.7 5.3 6.1 84 1.2 N 13 19 7 10 1021.5 - 0.4
25/07:00am 8.7 6.5 6.1 84 1.2 NW 7 11 4 6 1021.5 1021.5 0.4
25/06:30am 8.7 6.5 6.1 84 1.2 W 7 11 4 6 1021.3 - 0.4
25/06:00am 8.5 6.9 6.5 87 0.9 NW 4 9 2 5 1021.0 1021.0 0.4
25/05:30am 8.7 7.2 6.8 88 0.9 NW 4 7 2 4 1020.8 - 0.4
25/05:00am 8.9 7.0 6.7 86 1.0 NNW 6 9 3 5 1020.7 1020.7 0.4
25/04:30am 8.4 5.2 6.7 89 0.8 NNW 13 15 7 8 1020.6 - 0.4
25/04:00am 8.7 5.9 6.8 88 0.9 WNW 11 17 6 9 1020.7 1020.7 0.4
25/03:30am 8.7 5.5 7.0 89 0.8 WNW 13 17 7 9 1020.7 - 0.4
25/03:00am 8.7 4.4 7.0 89 0.8 NW 19 20 10 11 1020.8 1020.8 0.4
25/02:30am 8.6 4.7 6.9 89 0.8 WNW 17 20 9 11 1020.7 - 0.4
25/02:00am 8.5 5.2 6.5 87 0.9 WNW 13 20 7 11 1020.6 1020.6 0.4
25/01:30am 9.2 6.0 6.8 85 1.1 WNW 13 17 7 9 1020.5 - 0.4
25/01:00am 9.4 6.6 6.8 84 1.2 WNW 11 13 6 7 1020.2 1020.2 0.4
25/12:30am 9.7 6.5 6.9 83 1.3 WNW 13 15 7 8 1020.4 - 0.4
25/12:00am 10.2 7.4 7.0 80 1.5 NW 11 13 6 7 1020.4 1020.4 0.4
 
Date/Time
WST
Temp
°C
App
Temp
°C
Dew
Point
Rel
Hum
%
Delta-T
°C
Wind Press
QNH
hPa
Press
MSL
hPa
Rain
since 9 am
mm
Dir
 
Spd
km/h
Gust
km/h
Spd
kts
Gust
kts
24/11:30pm 9.5 6.7 6.9 84 1.2 NW 11 13 6 7 1020.5 - 0.4
24/11:00pm 9.8 6.9 6.6 80 1.5 NW 11 13 6 7 1020.7 1020.7 0.4
24/10:30pm 10.7 7.5 6.7 76 1.9 WNW 13 17 7 9 1020.8 - 0.4
24/10:00pm 10.8 7.5 6.5 75 2.0 WNW 13 15 7 8 1020.9 1020.9 0.4
24/09:30pm 12.9 9.8 5.4 60 3.5 W 11 17 6 9 1020.7 - 0.4
24/09:00pm 13.1 10.1 6.1 62 3.3 W 11 17 6 9 1020.6 1020.6 0.4
24/08:30pm 14.0 10.8 7.0 62 3.4 WSW 13 20 7 11 1020.4 - 0.4
24/08:00pm 13.8 11.2 7.9 67 2.9 WSW 11 17 6 9 1020.1 1020.1 0.4
24/07:30pm 13.9 11.0 8.3 69 2.8 SW 13 20 7 11 1020.1 - 0.4
24/07:00pm 13.6 11.3 9.0 74 2.3 SW 11 17 6 9 1020.0 1020.0 0.4
24/06:30pm 13.6 10.8 8.4 71 2.6 SW 13 22 7 12 1019.7 - 0.4
24/06:00pm 13.5 10.8 8.9 74 2.3 SW 13 20 7 11 1019.4 1019.4 0.4
24/05:30pm 13.5 10.4 8.9 74 2.3 SSW 15 24 8 13 1019.2 - 0.4
24/05:00pm 13.7 10.3 7.8 67 2.9 SW 15 30 8 16 1018.9 1018.9 0.4
24/04:30pm 14.1 11.0 7.1 62 3.4 SW 13 20 7 11 1018.8 - 0.4
24/04:00pm 14.5 9.9 6.6 59 3.8 WSW 20 32 11 17 1018.5 1018.5 0.4
24/03:30pm 14.8 9.5 7.0 59 3.8 WSW 24 35 13 19 1018.0 - 0.4
24/03:00pm 15.3 10.4 6.7 56 4.2 WSW 22 41 12 22 1017.7 1017.7 0.4
24/02:30pm 14.7 9.5 7.4 61 3.6 WSW 24 39 13 21 1017.6 - 0.4
24/02:00pm 14.6 8.7 7.5 62 3.5 WSW 28 39 15 21 1017.4 1017.4 0.4
24/01:30pm 15.4 11.0 7.5 59 3.9 WSW 20 35 11 19 1017.2 - 0.4
24/01:00pm 14.7 9.5 7.2 61 3.7 WSW 24 39 13 21 1017.2 1017.2 0.4
24/12:30pm 15.4 10.7 7.8 60 3.8 WSW 22 35 12 19 1017.1 - 0.4
24/12:00pm 15.6 10.0 5.5 51 4.8 WSW 24 37 13 20 1017.1 1017.1 0.4
24/11:30am 15.2 10.3 7.1 58 4.0 SW 22 43 12 23 1017.3 - 0.4
24/11:00am 14.1 8.7 8.1 67 3.0 SW 26 41 14 22 1017.4 1017.4 0.4
24/10:49am 15.3 9.3 7.2 58 4.0 SW 28 46 15 25 1017.5 - 0.4
24/10:30am 14.6 10.0 8.0 64 3.3 SW 22 33 12 18 1017.6 - 0.4
24/10:00am 13.4 7.9 9.3 76 2.1 SSW 28 44 15 24 1017.8 1017.8 0.4
24/09:30am 13.2 8.9 9.5 78 1.9 SSW 22 41 12 22 1017.4 - 0.4
24/09:25am 13.2 9.0 9.9 80 1.7 SSW 22 41 12 22 1017.3 - 0.4
24/09:00am 12.3 8.4 9.5 83 1.4 WNW 20 28 11 15 1016.9 1016.9 10.2
24/08:30am 11.2 7.3 9.4 89 0.9 WNW 20 28 11 15 1016.6 - 10.2
24/08:00am 10.5 6.8 9.3 92 0.6 WNW 19 24 10 13 1016.3 1016.3 10.2
24/07:30am 10.2 6.1 8.6 90 0.8 WNW 20 28 11 15 1016.0 - 10.2
24/07:00am 10.0 5.8 8.4 90 0.8 WNW 20 28 11 15 1015.8 1015.8 10.2
24/06:30am 9.8 5.8 8.4 91 0.7 WNW 19 28 10 15 1015.6 - 10.2
24/06:00am 9.7 6.1 8.5 92 0.6 WNW 17 26 9 14 1015.3 1015.4 10.2
24/05:30am 9.6 5.4 8.4 92 0.6 WNW 20 30 11 16 1015.1 - 10.2
24/05:00am 9.3 5.5 7.4 88 0.9 WNW 17 24 9 13 1015.2 1015.3 10.2
24/04:30am 9.2 5.3 7.1 87 1.0 WNW 17 24 9 13 1015.1 - 10.2
24/04:00am 9.0 5.4 6.9 87 1.0 WNW 15 22 8 12 1015.0 1015.1 10.2
24/03:30am 8.7 3.8 6.8 88 0.9 NW 22 30 12 16 1015.1 - 10.2
24/03:00am 8.6 4.0 6.4 86 1.0 WNW 20 30 11 16 1015.5 1015.5 10.2
24/02:30am 8.4 3.9 6.0 85 1.1 WNW 19 24 10 13 1015.7 - 10.2
24/02:00am 8.0 3.3 5.3 83 1.2 NW 19 28 10 15 1016.1 1016.1 10.2
24/01:30am 7.6 4.0 5.1 84 1.1 NW 13 19 7 10 1016.3 - 10.2
24/01:00am 7.7 2.8 5.0 83 1.2 WNW 20 26 11 14 1016.3 1016.3 10.2
24/12:30am 7.7 2.8 5.2 84 1.1 NW 20 28 11 15 1016.4 - 10.2
24/12:00am 8.1 3.8 5.2 82 1.3 WNW 17 22 9 12 1016.7 1016.7 10.2
 
Date/Time
WST
Temp
°C
App
Temp
°C
Dew
Point
Rel
Hum
%
Delta-T
°C
Wind Press
QNH
hPa
Press
MSL
hPa
Rain
since 9 am
mm
Dir
 
Spd
km/h
Gust
km/h
Spd
kts
Gust
kts
23/11:30pm 8.3 4.4 5.4 82 1.3 WNW 15 20 8 11 1016.9 - 10.2
23/11:00pm 8.4 4.9 5.5 82 1.3 WNW 13 19 7 10 1017.1 1017.1 10.2
23/10:30pm 8.6 4.9 6.2 85 1.1 NW 15 20 8 11 1017.3 - 10.2
23/10:00pm 8.9 5.2 6.5 85 1.1 WNW 15 20 8 11 1017.5 1017.5 10.2
23/09:30pm 9.4 6.6 7.1 85 1.1 WNW 11 17 6 9 1017.6 - 10.2
23/09:00pm 9.9 6.1 7.6 85 1.1 WNW 17 22 9 12 1017.6 1017.6 10.2
23/08:30pm 10.2 7.4 8.4 89 0.9 WNW 13 17 7 9 1017.6 - 10.2
23/08:00pm 11.2 8.9 9.0 86 1.1 WSW 11 15 6 8 1017.6 1017.6 10.0
23/07:30pm 11.7 8.4 9.7 87 1.0 W 17 22 9 12 1017.6 - 10.0
23/07:27pm 11.7 8.5 9.9 89 0.9 W 17 22 9 12 1017.6 - 10.0
23/07:07pm 11.9 9.6 10.5 91 0.7 WNW 13 20 7 11 1017.6 - 9.6
23/07:00pm 12.1 10.5 10.1 87 1.0 W 9 17 5 9 1017.5 1017.5 9.2
23/06:30pm 12.3 10.6 10.0 86 1.2 W 9 13 5 7 1017.4 - 9.2
23/06:00pm 12.6 10.1 9.7 82 1.5 SW 13 20 7 11 1017.3 1017.3 9.2
23/05:30pm 12.7 9.8 9.8 82 1.5 WSW 15 22 8 12 1017.2 - 9.2
23/05:00pm 12.8 9.3 10.1 84 1.4 WSW 19 28 10 15 1017.2 1017.2 9.0
23/04:30pm 13.5 9.5 9.2 75 2.2 WSW 20 35 11 19 1017.0 - 9.0
23/04:00pm 13.4 9.6 9.7 78 1.9 WSW 20 32 11 17 1016.6 1016.6 9.0
23/03:30pm 13.1 9.0 11.4 89 0.9 SW 24 33 13 18 1016.2 - 9.0
23/03:17pm 12.5 7.6 11.2 92 0.7 WSW 28 50 15 27 1016.3 - 8.8
23/03:00pm 12.6 7.8 11.7 94 0.5 WSW 28 41 15 22 1016.1 1016.1 8.4
23/02:30pm 12.7 8.4 12.1 96 0.3 WSW 26 43 14 23 1015.9 - 8.2
23/02:14pm 13.3 8.7 12.4 94 0.5 WSW 28 43 15 23 1015.8 - 8.0
23/02:00pm 13.9 10.5 12.4 91 0.8 WSW 22 33 12 18 1015.6 1015.6 8.0
23/01:57pm 13.9 10.9 12.6 92 0.7 WSW 20 32 11 17 1015.6 - 8.0
23/01:31pm 13.4 11.1 12.9 97 0.3 NW 17 26 9 14 1015.6 - 7.8
23/01:30pm 13.4 11.0 12.7 95 0.4 WNW 17 26 9 14 1015.6 - 7.8
23/01:23pm 13.6 10.7 12.9 95 0.4 NW 20 32 11 17 1015.6 - 7.0
23/01:00pm 14.2 13.0 12.9 92 0.7 WNW 11 19 6 10 1015.6 1015.6 6.4
23/12:52pm 14.1 12.4 12.6 91 0.8 W 13 19 7 10 1015.7 - 6.4
23/12:30pm 13.9 12.6 12.6 92 0.7 W 11 22 6 12 1015.9 - 6.0
23/12:00pm 13.7 11.8 11.8 88 1.0 SSW 13 17 7 9 1016.3 1016.3 2.6
23/11:30am 15.5 15.0 13.9 90 0.9 WNW 9 15 5 8 1016.8 - 0.6
23/11:00am 13.3 12.0 12.6 95 0.4 WNW 11 19 6 10 1017.3 1017.3 0.6
23/10:53am 13.3 12.4 12.6 95 0.4 WNW 9 17 5 9 1017.4 - 0.6
23/10:30am 13.8 11.0 12.5 92 0.7 NW 19 22 10 12 1017.6 - 0.2
23/10:00am 14.0 11.6 12.5 91 0.8 NW 17 24 9 13 1017.6 1017.6 0.2
23/09:30am 11.7 9.6 11.1 96 0.3 NW 13 17 7 9 1017.7 - 0.2
23/09:00am 11.4 8.4 10.8 96 0.3 NW 17 22 9 12 1017.6 1017.6 7.4
23/08:38am 11.4 8.8 10.8 96 0.3 NW 15 19 8 10 1017.3 - 7.2
23/08:30am 11.5 8.9 10.7 95 0.4 NW 15 19 8 10 1017.2 - 7.0
23/08:00am 10.0 7.5 9.6 97 0.2 NW 13 17 7 9 1016.8 1016.8 7.0
23/07:30am 9.6 7.4 9.2 97 0.2 NW 11 17 6 9 1016.3 - 7.0
23/07:00am 9.5 7.3 9.3 99 0.1 NW 11 13 6 7 1016.1 1016.1 7.0
23/06:30am 9.7 7.1 9.5 99 0.1 NW 13 17 7 9 1015.8 - 7.0
23/06:00am 9.6 7.1 9.6 100 0.0 NW 13 17 7 9 1015.5 1015.5 7.0
23/05:49am 9.7 7.1 9.5 99 0.1 WNW 13 20 7 11 1015.3 - 7.0
23/05:47am 9.7 6.8 9.5 99 0.1 WNW 15 20 8 11 1015.3 - 7.0
23/05:30am 9.7 7.1 9.5 99 0.1 WNW 13 19 7 10 1015.2 - 7.0
23/05:00am 10.2 7.7 9.8 97 0.2 WNW 13 20 7 11 1015.1 1015.2 7.0
23/04:33am 10.4 6.8 10.0 97 0.2 WNW 19 24 10 13 1015.2 - 7.0
23/04:30am 10.4 7.2 10.0 97 0.2 WNW 17 24 9 13 1015.2 - 7.0
23/04:04am 10.3 6.7 9.9 97 0.2 WNW 19 24 10 13 1015.0 - 7.0
23/04:00am 10.3 6.7 9.9 97 0.2 WNW 19 24 10 13 1015.0 1015.1 7.0
23/03:30am 10.4 7.2 10.0 97 0.2 WNW 17 24 9 13 1014.9 - 7.0
23/03:00am 10.3 7.1 9.9 97 0.2 WNW 17 24 9 13 1014.8 1014.9 7.0
23/02:30am 10.2 6.6 9.8 97 0.2 WNW 19 24 10 13 1014.7 - 7.0
23/02:00am 10.3 7.5 9.9 97 0.2 WNW 15 20 8 11 1014.6 1014.7 7.0
23/01:30am 10.6 7.9 10.2 97 0.2 WNW 15 20 8 11 1014.5 - 7.0
23/01:00am 10.3 7.0 9.7 96 0.3 WNW 17 22 9 12 1014.2 1014.3 7.0
23/12:30am 10.5 7.3 10.1 97 0.2 WNW 17 22 9 12 1013.9 - 7.0
23/12:00am 11.4 8.0 10.4 94 0.5 WNW 19 26 10 14 1013.6 1013.6 7.0
 
Date/Time
WST
Temp
°C
App
Temp
°C
Dew
Point
Rel
Hum
%
Delta-T
°C
Wind Press
QNH
hPa
Press
MSL
hPa
Rain
since 9 am
mm
Dir
 
Spd
km/h
Gust
km/h
Spd
kts
Gust
kts
22/11:30pm 11.5 8.9 10.7 95 0.4 WNW 15 22 8 12 1013.6 - 7.0
22/11:00pm 12.1 10.0 11.0 93 0.6 W 13 24 7 13 1013.5 1013.5 6.8
22/10:30pm 11.4 8.8 10.6 95 0.4 WNW 15 20 8 11 1013.4 - 6.8
22/10:00pm 11.4 9.2 10.8 96 0.3 WNW 13 15 7 8 1013.4 1013.4 6.8
22/09:30pm 12.0 10.2 11.0 94 0.5 W 11 17 6 9 1013.5 - 6.8
22/09:27pm 12.0 10.6 11.0 94 0.5 WSW 9 17 5 9 1013.5 - 6.6
22/09:00pm 11.8 10.4 11.0 95 0.4 WSW 9 13 5 7 1013.5 1013.5 6.6
22/08:46pm 11.7 10.3 10.9 95 0.4 SW 9 15 5 8 1013.4 - 6.2
22/08:30pm 11.5 9.7 10.9 96 0.3 WNW 11 17 6 9 1013.3 - 6.0
22/08:00pm 11.6 9.9 11.2 97 0.2 W 11 15 6 8 1013.1 1013.1 6.0
22/07:54pm 11.6 9.8 11.0 96 0.3 W 11 17 6 9 1013.1 - 5.8
22/07:35pm 11.1 8.8 10.5 96 0.3 W 13 22 7 12 1013.0 - 5.8
22/07:30pm 11.0 7.9 10.4 96 0.3 W 17 26 9 14 1013.0 - 5.8
22/07:04pm 10.6 7.1 10.2 97 0.2 WNW 19 26 10 14 1012.8 - 5.0
22/07:03pm 10.6 7.1 10.2 97 0.2 WNW 19 26 10 14 1012.8 - 5.0
22/07:00pm 10.6 7.1 10.2 97 0.2 WNW 19 28 10 15 1012.8 1012.8 5.0
22/06:47pm 10.6 7.0 10.0 96 0.3 WNW 19 24 10 13 1012.9 - 4.2
22/06:30pm 10.6 6.8 9.8 95 0.4 WNW 20 30 11 16 1012.7 - 4.0
22/06:28pm 10.5 6.7 9.9 96 0.3 WNW 20 30 11 16 1012.7 - 4.0
22/06:26pm 10.5 6.7 9.9 96 0.3 WNW 20 30 11 16 1012.7 - 4.0
22/06:05pm 10.7 6.9 9.7 93 0.5 WNW 20 30 11 16 1012.6 - 3.6
22/06:00pm 10.9 7.0 9.3 90 0.8 WNW 20 28 11 15 1012.5 1012.5 3.4
22/05:30pm 11.4 7.6 9.2 86 1.1 WNW 19 32 10 17 1012.4 - 3.4
22/05:00pm 11.8 9.1 8.8 82 1.5 WNW 13 24 7 13 1011.9 1011.9 3.4
22/04:30pm 12.2 9.6 9.4 83 1.4 W 13 20 7 11 1011.8 - 3.4

Other Formats:

Comma delimited format used in spreadsheet applications
http://www.bom.gov.au/fwo/IDW60801/IDW60801.94638.axf

JavaScript Object Notation format (JSON) in row-major order
http://www.bom.gov.au/fwo/IDW60801/IDW60801.94638.json